createdAt,value
2023-04-30T00:01:52.528Z,5.70
2023-04-30T00:04:20.679Z,5.90
2023-04-30T00:06:48.705Z,5.80
2023-04-30T00:09:16.768Z,5.70
2023-04-30T00:11:46.568Z,5.70
2023-04-30T00:14:14.473Z,5.60
2023-04-30T00:16:42.444Z,5.70
2023-04-30T00:19:10.899Z,5.70
2023-04-30T00:21:38.910Z,5.60
2023-04-30T00:24:07.611Z,5.40
2023-04-30T00:26:35.677Z,5.30
2023-04-30T00:29:04.952Z,5.50
2023-04-30T00:31:33.031Z,5.40
2023-04-30T00:34:01.130Z,5.50
2023-04-30T00:36:29.242Z,5.40
2023-04-30T00:38:57.106Z,5.40
2023-04-30T00:41:26.829Z,5.20
2023-04-30T00:43:54.725Z,5.40
2023-04-30T00:46:24.270Z,5.40
2023-04-30T00:48:52.310Z,5.40
2023-04-30T00:51:20.451Z,5.30
2023-04-30T00:53:48.441Z,5.30
2023-04-30T00:56:17.330Z,5.10
2023-04-30T00:58:45.213Z,5.40
2023-04-30T01:01:13.662Z,5.20
2023-04-30T01:03:44.549Z,5.40
2023-04-30T01:06:12.692Z,5.40
2023-04-30T01:08:40.860Z,5.20
2023-04-30T01:11:18.397Z,5.30
2023-04-30T01:13:59.358Z,5.10
2023-04-30T01:16:29.680Z,5.10
2023-04-30T01:19:03.621Z,5.20
2023-04-30T01:21:33.684Z,5.10
2023-04-30T01:24:39.027Z,4.90
2023-04-30T01:27:16.674Z,5.10
2023-04-30T01:29:46.226Z,5.00
2023-04-30T01:32:14.598Z,5.20
2023-04-30T01:34:42.738Z,5.10
2023-04-30T01:37:21.911Z,5.10
2023-04-30T01:40:04.482Z,4.70
2023-04-30T01:42:42.665Z,4.90
2023-04-30T01:45:28.334Z,4.90
2023-04-30T01:48:04.540Z,4.90
2023-04-30T01:50:40.272Z,5.00
2023-04-30T01:53:12.086Z,5.00
2023-04-30T01:55:45.201Z,4.70
2023-04-30T01:58:16.268Z,4.80
2023-04-30T02:00:46.208Z,4.70
2023-04-30T02:03:14.325Z,4.60
2023-04-30T02:05:42.402Z,4.70
2023-04-30T02:08:10.322Z,4.90
2023-04-30T02:10:38.456Z,4.90
2023-04-30T02:13:06.500Z,4.50
2023-04-30T02:15:34.469Z,4.60
2023-04-30T02:18:03.958Z,4.60
2023-04-30T02:20:31.985Z,4.60
2023-04-30T02:23:00.065Z,4.60
2023-04-30T02:25:27.994Z,4.50
2023-04-30T02:27:55.853Z,4.50
2023-04-30T02:30:23.825Z,4.50
2023-04-30T02:32:51.741Z,4.50
2023-04-30T02:35:21.261Z,4.40
2023-04-30T02:37:49.326Z,4.30
2023-04-30T02:40:17.617Z,4.30
2023-04-30T02:42:45.537Z,4.30
2023-04-30T02:45:13.468Z,4.40
2023-04-30T02:47:41.678Z,4.30
2023-04-30T02:50:10.598Z,4.60
2023-04-30T02:52:39.896Z,4.20
2023-04-30T02:55:08.889Z,4.40
2023-04-30T02:57:36.924Z,4.40
2023-04-30T03:00:06.160Z,4.40
2023-04-30T03:02:34.430Z,4.20
2023-04-30T03:05:02.668Z,4.30
2023-04-30T03:07:30.828Z,4.20
2023-04-30T03:10:00.436Z,4.30
2023-04-30T03:12:28.432Z,4.30
2023-04-30T03:14:56.359Z,4.40
2023-04-30T03:17:24.984Z,4.10
2023-04-30T03:19:53.072Z,4.10
2023-04-30T03:22:23.630Z,4.30
2023-04-30T03:24:51.705Z,4.00
2023-04-30T03:27:21.258Z,4.20
2023-04-30T03:29:49.269Z,3.90
2023-04-30T03:32:17.612Z,4.20
2023-04-30T03:34:46.154Z,4.10
2023-04-30T03:37:14.459Z,4.20
2023-04-30T03:39:42.470Z,4.10
2023-04-30T03:42:10.656Z,4.20
2023-04-30T03:44:40.084Z,4.10
2023-04-30T03:47:08.413Z,3.90
2023-04-30T03:49:36.273Z,4.10
2023-04-30T03:52:05.686Z,3.90
2023-04-30T03:54:34.399Z,3.80
2023-04-30T03:57:04.588Z,4.00
2023-04-30T03:59:33.097Z,4.20
2023-04-30T04:02:02.990Z,3.90
2023-04-30T04:04:32.675Z,4.00
2023-04-30T04:07:01.341Z,3.90
2023-04-30T04:09:29.188Z,4.10
2023-04-30T04:11:58.085Z,3.90
2023-04-30T04:14:26.034Z,3.90
2023-04-30T04:16:54.087Z,3.80
2023-04-30T04:19:23.651Z,3.90
2023-04-30T04:21:51.567Z,3.80
2023-04-30T04:24:19.777Z,3.80
2023-04-30T04:26:48.196Z,4.10
2023-04-30T04:29:16.124Z,4.00
2023-04-30T04:31:44.370Z,3.80
2023-04-30T04:34:12.614Z,3.70
2023-04-30T04:36:41.883Z,4.10
2023-04-30T04:39:10.176Z,4.00
2023-04-30T04:41:38.146Z,3.90
2023-04-30T04:44:06.552Z,3.90
2023-04-30T04:46:38.640Z,4.00
2023-04-30T04:49:06.931Z,4.30
2023-04-30T04:51:35.147Z,4.40
2023-04-30T04:54:05.010Z,4.30
2023-04-30T04:56:33.200Z,4.50
2023-04-30T04:59:01.522Z,4.40
2023-04-30T05:01:29.658Z,4.50
2023-04-30T05:03:57.898Z,4.70
2023-04-30T05:06:27.042Z,4.80
2023-04-30T05:08:55.021Z,4.90
2023-04-30T05:11:24.516Z,4.70
2023-04-30T05:13:52.394Z,4.90
2023-04-30T05:16:20.438Z,5.00
2023-04-30T05:18:48.444Z,5.20
2023-04-30T05:21:16.564Z,5.40
2023-04-30T05:23:46.145Z,5.50
2023-04-30T05:26:14.430Z,5.70
2023-04-30T05:28:43.903Z,5.70
2023-04-30T05:31:12.356Z,5.50
2023-04-30T05:33:40.998Z,5.80
2023-04-30T05:36:09.146Z,5.90
2023-04-30T05:38:37.154Z,6.10
2023-04-30T05:41:05.668Z,6.10
2023-04-30T05:43:33.652Z,6.30
2023-04-30T05:46:03.713Z,6.30
2023-04-30T05:48:32.013Z,6.50
2023-04-30T05:51:00.286Z,6.30
2023-04-30T05:53:28.649Z,6.50
2023-04-30T05:55:56.799Z,6.60
2023-04-30T05:58:24.841Z,6.70
2023-04-30T06:00:53.334Z,6.60
2023-04-30T06:03:22.967Z,7.10
2023-04-30T06:05:51.115Z,6.90
2023-04-30T06:08:19.206Z,7.10
2023-04-30T06:10:47.160Z,7.40
2023-04-30T06:13:15.378Z,7.50
2023-04-30T06:15:43.558Z,7.40
2023-04-30T06:18:14.403Z,7.50
2023-04-30T06:20:43.817Z,7.50
2023-04-30T06:23:11.980Z,7.70
2023-04-30T06:25:40.733Z,7.70
2023-04-30T06:28:12.308Z,7.80
2023-04-30T06:30:40.366Z,8.10
2023-04-30T06:33:08.709Z,8.20
2023-04-30T06:35:36.969Z,8.40
2023-04-30T06:38:06.781Z,8.60
2023-04-30T06:40:39.634Z,8.50
2023-04-30T06:43:07.862Z,8.40
2023-04-30T06:45:36.751Z,8.70
2023-04-30T06:48:08.057Z,8.80
2023-04-30T06:50:45.059Z,8.80
2023-04-30T06:53:15.293Z,8.90
2023-04-30T06:55:44.296Z,9.00
2023-04-30T06:58:14.259Z,9.10
2023-04-30T07:00:45.053Z,9.00
2023-04-30T07:03:15.741Z,9.10
2023-04-30T07:05:44.002Z,9.10
2023-04-30T07:08:12.988Z,9.30
2023-04-30T07:10:42.199Z,9.20
2023-04-30T07:13:10.121Z,9.30
2023-04-30T07:15:38.846Z,9.50
2023-04-30T07:18:06.728Z,9.50
2023-04-30T07:20:34.990Z,9.80
2023-04-30T07:23:02.806Z,9.70
2023-04-30T07:25:30.746Z,9.80
2023-04-30T07:28:00.274Z,9.80
2023-04-30T07:30:28.199Z,9.80
2023-04-30T07:32:56.409Z,9.90
2023-04-30T07:35:24.285Z,9.90
2023-04-30T07:37:52.165Z,10.00
2023-04-30T07:40:29.155Z,10.00
2023-04-30T07:43:04.965Z,10.20
2023-04-30T07:45:34.937Z,10.10
2023-04-30T07:48:02.899Z,10.10
2023-04-30T07:50:34.179Z,10.10
2023-04-30T07:53:03.321Z,10.20
2023-04-30T07:55:31.355Z,10.30
2023-04-30T07:57:59.782Z,10.10
2023-04-30T08:00:31.233Z,10.20
2023-04-30T08:03:00.770Z,10.30
2023-04-30T08:05:28.885Z,10.20
2023-04-30T08:07:57.017Z,10.40
2023-04-30T08:10:25.319Z,10.50
2023-04-30T08:12:54.163Z,10.80
2023-04-30T08:15:22.411Z,10.90
2023-04-30T08:17:52.779Z,11.10
2023-04-30T08:20:23.706Z,11.00
2023-04-30T08:22:52.093Z,11.00
2023-04-30T08:25:20.210Z,10.90
2023-04-30T08:27:48.199Z,11.00
2023-04-30T08:30:16.178Z,11.10
2023-04-30T08:32:44.193Z,11.30
2023-04-30T08:35:13.552Z,11.50
2023-04-30T08:37:41.406Z,11.70
2023-04-30T08:40:11.965Z,11.90
2023-04-30T08:42:45.582Z,11.90
2023-04-30T08:45:14.516Z,12.10
2023-04-30T08:47:43.018Z,12.30
2023-04-30T08:50:11.286Z,12.30
2023-04-30T08:52:41.272Z,12.60
2023-04-30T08:55:11.191Z,12.70
2023-04-30T08:57:39.466Z,12.50
2023-04-30T09:00:09.669Z,12.10
2023-04-30T09:02:41.361Z,12.30
2023-04-30T09:05:12.646Z,12.30
2023-04-30T09:07:48.982Z,12.40
2023-04-30T09:10:21.615Z,12.40
2023-04-30T09:13:00.174Z,12.50
2023-04-30T09:15:28.239Z,12.60
2023-04-30T09:18:14.353Z,12.50
2023-04-30T09:20:56.736Z,12.50
2023-04-30T09:23:26.647Z,12.60
2023-04-30T09:25:54.556Z,12.90
2023-04-30T09:28:25.401Z,13.10
2023-04-30T09:30:53.951Z,13.00
2023-04-30T09:33:21.806Z,13.00
2023-04-30T09:35:49.887Z,13.20
2023-04-30T09:38:30.160Z,13.20
2023-04-30T09:41:00.752Z,13.20
2023-04-30T09:43:28.966Z,13.40
2023-04-30T09:45:59.650Z,13.30
2023-04-30T09:48:28.713Z,13.20
2023-04-30T09:50:56.735Z,13.30
2023-04-30T09:53:24.543Z,13.30
2023-04-30T09:55:54.948Z,13.30
2023-04-30T09:58:27.094Z,13.50
2023-04-30T10:00:57.093Z,13.70
2023-04-30T10:03:25.479Z,13.70
2023-04-30T10:05:54.514Z,13.70
2023-04-30T10:08:27.997Z,13.70
2023-04-30T10:11:01.268Z,13.70
2023-04-30T10:13:34.403Z,13.80
2023-04-30T10:16:09.229Z,13.90
2023-04-30T10:18:41.038Z,14.00
2023-04-30T10:21:14.133Z,14.20
2023-04-30T10:23:43.900Z,14.30
2023-04-30T10:26:13.599Z,14.30
2023-04-30T10:28:42.045Z,14.20
2023-04-30T10:31:11.407Z,14.10
2023-04-30T10:33:49.834Z,14.10
2023-04-30T10:36:27.746Z,14.40
2023-04-30T10:38:56.144Z,14.60
2023-04-30T10:41:27.917Z,14.70
2023-04-30T10:44:01.197Z,14.80
2023-04-30T10:46:29.963Z,15.00
2023-04-30T10:48:57.896Z,15.10
2023-04-30T10:51:45.168Z,15.20
2023-04-30T10:54:14.601Z,15.10
2023-04-30T10:56:46.885Z,15.10
2023-04-30T10:59:15.446Z,15.10
2023-04-30T11:02:07.202Z,15.20
2023-04-30T11:04:35.051Z,15.10
2023-04-30T11:07:08.277Z,15.30
2023-04-30T11:09:38.556Z,15.60
2023-04-30T11:12:16.452Z,15.60
2023-04-30T11:14:46.076Z,15.70
2023-04-30T11:17:23.022Z,15.70
2023-04-30T11:19:52.788Z,15.60
2023-04-30T11:22:24.022Z,15.60
2023-04-30T11:24:53.467Z,15.80
2023-04-30T11:27:24.277Z,16.00
2023-04-30T11:29:53.502Z,15.80
2023-04-30T11:32:23.619Z,16.00
2023-04-30T11:34:52.011Z,16.00
2023-04-30T11:37:24.769Z,16.20
2023-04-30T11:39:53.301Z,16.10
2023-04-30T11:42:22.697Z,16.10
2023-04-30T11:44:50.573Z,16.00
2023-04-30T11:47:18.404Z,16.10
2023-04-30T11:49:46.471Z,16.30
2023-04-30T11:52:14.529Z,16.40
2023-04-30T11:54:42.435Z,16.40
2023-04-30T11:57:10.338Z,16.40
2023-04-30T11:59:43.598Z,16.30
2023-04-30T12:02:15.354Z,16.30
2023-04-30T12:04:44.598Z,16.20
2023-04-30T12:07:13.047Z,16.30
2023-04-30T12:09:53.848Z,16.40
2023-04-30T12:12:29.005Z,16.60
2023-04-30T12:14:58.443Z,16.70
2023-04-30T12:17:33.526Z,16.70
2023-04-30T12:20:01.569Z,16.80
2023-04-30T12:22:30.002Z,16.90
2023-04-30T12:24:57.969Z,16.80
2023-04-30T12:27:25.609Z,16.70
2023-04-30T12:29:54.921Z,16.80
2023-04-30T12:32:24.385Z,16.80
2023-04-30T12:34:52.215Z,16.80
2023-04-30T12:37:19.914Z,16.80
2023-04-30T12:39:48.498Z,16.60
2023-04-30T12:42:19.766Z,16.60
2023-04-30T12:44:47.603Z,16.70
2023-04-30T12:47:15.483Z,16.70
2023-04-30T12:49:46.538Z,16.80
2023-04-30T12:52:15.500Z,16.90
2023-04-30T12:54:44.092Z,16.80
2023-04-30T12:57:13.060Z,17.00
2023-04-30T12:59:41.929Z,17.00
2023-04-30T13:02:10.672Z,17.00
2023-04-30T13:07:39.776Z,16.80
2023-04-30T13:10:07.864Z,17.00
2023-04-30T13:12:35.613Z,17.10
2023-04-30T13:15:03.923Z,17.40
2023-04-30T13:17:31.913Z,17.60
2023-04-30T13:19:59.924Z,17.40
2023-04-30T13:22:29.623Z,17.60
2023-04-30T13:25:01.451Z,17.90
2023-04-30T13:27:29.542Z,17.90
2023-04-30T13:29:57.640Z,17.70
2023-04-30T13:32:25.761Z,17.90
2023-04-30T13:34:55.052Z,18.00
2023-04-30T13:37:23.110Z,18.00
2023-04-30T13:39:51.122Z,17.90
2023-04-30T13:42:20.387Z,18.00
2023-04-30T13:44:49.944Z,17.90
2023-04-30T13:47:17.968Z,17.90
2023-04-30T13:49:45.923Z,17.90
2023-04-30T13:52:14.125Z,18.00
2023-04-30T13:54:42.076Z,18.10
2023-04-30T13:57:10.194Z,18.00
2023-04-30T13:59:39.519Z,17.90
2023-04-30T14:02:08.428Z,18.00
2023-04-30T14:04:36.372Z,18.00
2023-04-30T14:07:04.942Z,17.70
2023-04-30T14:09:32.890Z,17.60
2023-04-30T14:12:00.794Z,17.40
2023-04-30T14:14:28.894Z,17.50
2023-04-30T14:16:58.427Z,17.50
2023-04-30T14:19:26.790Z,17.70
2023-04-30T14:21:55.514Z,17.80
2023-04-30T14:24:23.748Z,17.90
2023-04-30T14:26:51.652Z,18.00
2023-04-30T14:29:21.606Z,18.00
2023-04-30T14:31:49.876Z,18.00
2023-04-30T14:34:19.689Z,17.90
2023-04-30T14:36:48.074Z,17.90
2023-04-30T14:39:16.024Z,18.00
2023-04-30T14:41:44.151Z,18.20
2023-04-30T14:44:12.033Z,18.30
2023-04-30T14:46:40.778Z,18.50
2023-04-30T14:49:08.705Z,18.60
2023-04-30T14:51:37.984Z,18.60
2023-04-30T14:54:06.120Z,18.70
2023-04-30T14:56:34.189Z,18.60
2023-04-30T14:59:02.150Z,18.50
2023-04-30T15:01:30.502Z,18.50
2023-04-30T15:03:58.775Z,18.20
2023-04-30T15:06:26.878Z,18.00
2023-04-30T15:08:56.570Z,17.90
2023-04-30T15:11:25.054Z,17.90
2023-04-30T15:13:54.538Z,17.90
2023-04-30T15:16:22.911Z,17.70
2023-04-30T15:18:50.903Z,17.80
2023-04-30T15:21:18.840Z,17.70
2023-04-30T15:23:46.914Z,18.00
2023-04-30T15:26:16.279Z,18.20
2023-04-30T15:28:44.300Z,18.20
2023-04-30T15:31:12.247Z,18.10
2023-04-30T15:33:42.095Z,18.10
2023-04-30T15:36:11.418Z,18.10
2023-04-30T15:38:40.276Z,18.20
2023-04-30T15:41:08.207Z,18.20
2023-04-30T15:43:37.482Z,18.40
2023-04-30T15:46:05.612Z,18.80
2023-04-30T15:48:33.577Z,19.30
2023-04-30T15:51:01.688Z,19.50
2023-04-30T15:53:29.616Z,19.70
2023-04-30T15:55:58.142Z,19.90
2023-04-30T15:58:26.116Z,20.20
2023-04-30T16:00:55.529Z,20.50
2023-04-30T16:03:23.566Z,20.80
2023-04-30T16:05:51.778Z,20.50
2023-04-30T16:08:19.875Z,20.60
2023-04-30T16:10:48.081Z,20.90
2023-04-30T16:13:16.163Z,21.40
2023-04-30T16:15:44.065Z,21.40
2023-04-30T16:18:13.469Z,21.30
2023-04-30T16:20:43.108Z,21.10
2023-04-30T16:23:11.329Z,20.80
2023-04-30T16:25:39.283Z,20.60
2023-04-30T16:28:07.212Z,20.50
2023-04-30T16:30:35.816Z,19.90
2023-04-30T16:33:04.086Z,19.20
2023-04-30T16:35:33.363Z,18.90
2023-04-30T16:38:02.536Z,18.70
2023-04-30T16:40:30.861Z,18.20
2023-04-30T16:43:00.578Z,18.10
2023-04-30T16:45:30.198Z,18.50
2023-04-30T16:47:58.315Z,18.70
2023-04-30T16:50:27.142Z,19.00
2023-04-30T16:52:56.517Z,19.30
2023-04-30T16:55:25.074Z,19.50
2023-04-30T16:57:53.848Z,19.70
2023-04-30T17:00:21.986Z,20.10
2023-04-30T17:02:50.287Z,19.80
2023-04-30T17:05:18.262Z,19.90
2023-04-30T17:07:46.301Z,19.80
2023-04-30T17:10:17.292Z,19.70
2023-04-30T17:12:45.317Z,19.30
2023-04-30T17:15:13.333Z,19.20
2023-04-30T17:17:41.524Z,19.10
2023-04-30T17:20:10.237Z,19.00
2023-04-30T17:22:38.279Z,19.00
2023-04-30T17:25:06.745Z,18.80
2023-04-30T17:27:36.039Z,18.80
2023-04-30T17:30:04.915Z,18.90
2023-04-30T17:32:32.854Z,18.80
2023-04-30T17:35:02.650Z,18.70
2023-04-30T17:37:30.540Z,18.60
2023-04-30T17:39:58.720Z,18.40
2023-04-30T17:42:26.819Z,18.20
2023-04-30T17:44:56.084Z,17.70
2023-04-30T17:47:24.136Z,17.40
2023-04-30T17:49:52.071Z,17.10
2023-04-30T17:52:20.128Z,16.80
2023-04-30T17:54:48.018Z,16.60
2023-04-30T17:57:15.887Z,16.40
2023-04-30T17:59:43.750Z,16.30
2023-04-30T18:02:13.085Z,16.00
2023-04-30T18:04:41.085Z,16.00
2023-04-30T18:07:09.340Z,15.70
2023-04-30T18:09:37.260Z,15.50
2023-04-30T18:12:05.252Z,15.40
2023-04-30T18:14:33.154Z,15.30
2023-04-30T18:17:01.050Z,15.20
2023-04-30T18:19:30.370Z,15.00
2023-04-30T18:21:58.264Z,14.90
2023-04-30T18:24:27.779Z,14.80
2023-04-30T18:26:55.823Z,14.70
2023-04-30T18:29:24.621Z,14.70
2023-04-30T18:31:52.909Z,14.60
2023-04-30T18:34:21.214Z,14.40
2023-04-30T18:36:50.701Z,14.20
2023-04-30T18:39:18.588Z,14.10
2023-04-30T18:41:46.500Z,13.90
2023-04-30T18:44:14.450Z,13.70
2023-04-30T18:46:42.688Z,13.60
2023-04-30T18:49:10.577Z,13.50
2023-04-30T18:51:38.458Z,13.40
2023-04-30T18:54:07.719Z,13.20
2023-04-30T18:56:36.865Z,13.10
2023-04-30T18:59:04.839Z,12.90
2023-04-30T19:01:32.809Z,12.80
2023-04-30T19:04:01.579Z,12.70
2023-04-30T19:06:30.747Z,12.60
2023-04-30T19:08:59.637Z,12.50
2023-04-30T19:11:29.036Z,12.30
2023-04-30T19:13:58.444Z,12.20
2023-04-30T19:16:26.422Z,11.90
2023-04-30T19:18:54.425Z,12.00
2023-04-30T19:21:23.427Z,12.00
2023-04-30T19:23:51.322Z,12.10
2023-04-30T19:26:19.480Z,12.00
2023-04-30T19:28:48.706Z,11.90
2023-04-30T19:31:16.744Z,11.80
2023-04-30T19:33:44.836Z,11.70
2023-04-30T19:36:13.302Z,11.60
2023-04-30T19:38:41.372Z,11.50
2023-04-30T19:41:09.297Z,11.50
2023-04-30T19:43:37.272Z,11.40
2023-04-30T19:46:07.351Z,11.40
2023-04-30T19:48:35.449Z,11.30
2023-04-30T19:51:06.646Z,11.20
2023-04-30T19:53:34.610Z,11.00
2023-04-30T19:56:02.481Z,11.00
2023-04-30T19:58:30.464Z,11.00
2023-04-30T20:00:58.359Z,10.70
2023-04-30T20:03:28.390Z,10.70
2023-04-30T20:05:56.503Z,10.70
2023-04-30T20:08:24.630Z,10.70
2023-04-30T20:10:52.535Z,10.50
2023-04-30T20:13:21.026Z,10.50
2023-04-30T20:15:49.136Z,10.50
2023-04-30T20:18:17.048Z,10.50
2023-04-30T20:20:46.326Z,10.40
2023-04-30T20:23:16.070Z,10.30
2023-04-30T20:25:44.816Z,10.30
2023-04-30T20:28:13.255Z,10.20
2023-04-30T20:30:42.804Z,10.30
2023-04-30T20:33:10.892Z,10.20
2023-04-30T20:35:41.434Z,10.30
2023-04-30T20:38:10.766Z,10.00
2023-04-30T20:40:40.257Z,10.20
2023-04-30T20:43:08.330Z,10.20
2023-04-30T20:45:36.593Z,10.20
2023-04-30T20:48:05.587Z,10.20
2023-04-30T20:50:34.110Z,10.10
2023-04-30T20:53:02.049Z,10.10
2023-04-30T20:55:32.429Z,10.00
2023-04-30T20:58:00.374Z,10.00
2023-04-30T21:00:28.262Z,10.00
2023-04-30T21:02:56.316Z,9.90
2023-04-30T21:05:24.406Z,9.90
2023-04-30T21:07:52.611Z,9.70
2023-04-30T21:10:20.576Z,9.80
2023-04-30T21:12:49.869Z,9.70
2023-04-30T21:15:17.989Z,9.80
2023-04-30T21:17:45.955Z,9.60
2023-04-30T21:20:14.385Z,9.60
2023-04-30T21:22:42.282Z,9.50
2023-04-30T21:25:12.143Z,9.50
2023-04-30T21:27:40.405Z,9.30
2023-04-30T21:30:10.770Z,9.50
2023-04-30T21:32:39.304Z,9.40
2023-04-30T21:35:08.061Z,9.30
2023-04-30T21:37:36.252Z,9.10
2023-04-30T21:40:04.700Z,9.00
2023-04-30T21:42:33.699Z,9.10
2023-04-30T21:45:01.625Z,9.00
2023-04-30T21:47:31.631Z,9.10
2023-04-30T21:49:59.624Z,9.10
2023-04-30T21:52:27.609Z,9.00
2023-04-30T21:54:55.755Z,9.00
2023-04-30T21:57:24.053Z,9.10
2023-04-30T21:59:51.893Z,8.90
2023-04-30T22:02:24.144Z,9.00
2023-04-30T22:04:55.321Z,8.90
2023-04-30T22:07:23.927Z,8.90
2023-04-30T22:09:52.679Z,8.90
2023-04-30T22:12:21.535Z,8.90
2023-04-30T22:14:53.080Z,8.90
2023-04-30T22:17:21.594Z,8.70
2023-04-30T22:19:49.646Z,8.60
2023-04-30T22:22:18.855Z,8.70
2023-04-30T22:24:46.798Z,8.70
2023-04-30T22:27:14.849Z,8.70
2023-04-30T22:29:43.732Z,8.60
2023-04-30T22:32:12.217Z,8.60
2023-04-30T22:34:41.738Z,8.60
2023-04-30T22:37:11.152Z,8.70
2023-04-30T22:39:40.791Z,8.40
2023-04-30T22:42:10.156Z,8.50
2023-04-30T22:44:38.689Z,8.60
2023-04-30T22:47:06.855Z,8.50
2023-04-30T22:49:37.070Z,8.50
2023-04-30T22:52:05.012Z,8.50
2023-04-30T22:54:32.950Z,8.50
2023-04-30T22:57:03.003Z,8.40
2023-04-30T22:59:30.883Z,8.40
2023-04-30T23:01:58.769Z,8.30
2023-04-30T23:04:26.995Z,8.50
2023-04-30T23:06:55.018Z,8.30
2023-04-30T23:09:22.911Z,8.40
2023-04-30T23:11:50.974Z,8.10
2023-04-30T23:14:20.207Z,8.40
2023-04-30T23:16:48.127Z,8.20
2023-04-30T23:19:16.005Z,8.30
2023-04-30T23:21:43.891Z,8.20
2023-04-30T23:24:11.760Z,8.10
2023-04-30T23:26:39.996Z,8.20
2023-04-30T23:29:07.857Z,8.00
2023-04-30T23:31:37.611Z,8.20
2023-04-30T23:34:05.730Z,8.10
2023-04-30T23:36:33.782Z,8.00
2023-04-30T23:39:01.641Z,8.10
2023-04-30T23:41:29.515Z,8.00
2023-04-30T23:43:57.399Z,7.90
2023-04-30T23:46:25.338Z,7.90
2023-04-30T23:48:54.590Z,8.10
2023-04-30T23:51:22.592Z,8.00
2023-04-30T23:53:50.519Z,7.70
2023-04-30T23:56:18.416Z,8.00
2023-04-30T23:58:46.357Z,7.80
